sensor_id;sensor_type;location;lat;lon;timestamp;P1;durP1;ratioP1;P2;durP2;ratioP2
1603;SDS011;795;49.296;11.348;2023-03-31T00:00:50;5.67;;;3.60;;
1603;SDS011;795;49.296;11.348;2023-03-31T00:03:19;4.23;;;3.50;;
1603;SDS011;795;49.296;11.348;2023-03-31T00:05:56;4.73;;;3.30;;
1603;SDS011;795;49.296;11.348;2023-03-31T00:08:26;6.67;;;2.27;;
1603;SDS011;795;49.296;11.348;2023-03-31T00:11:01;5.77;;;3.17;;
1603;SDS011;795;49.296;11.348;2023-03-31T00:13:33;7.00;;;2.97;;
1603;SDS011;795;49.296;11.348;2023-03-31T00:16:05;2.10;;;2.00;;
1603;SDS011;795;49.296;11.348;2023-03-31T00:18:35;12.37;;;3.07;;
1603;SDS011;795;49.296;11.348;2023-03-31T00:21:07;4.73;;;2.30;;
1603;SDS011;795;49.296;11.348;2023-03-31T00:23:40;5.33;;;2.70;;
1603;SDS011;795;49.296;11.348;2023-03-31T00:26:07;4.83;;;2.57;;
1603;SDS011;795;49.296;11.348;2023-03-31T00:28:34;7.47;;;5.03;;
1603;SDS011;795;49.296;11.348;2023-03-31T00:31:02;5.80;;;3.20;;
1603;SDS011;795;49.296;11.348;2023-03-31T00:33:29;2.77;;;2.57;;
1603;SDS011;795;49.296;11.348;2023-03-31T00:35:56;4.57;;;2.10;;
1603;SDS011;795;49.296;11.348;2023-03-31T00:38:30;4.43;;;2.23;;
1603;SDS011;795;49.296;11.348;2023-03-31T00:40:58;3.33;;;2.33;;
1603;SDS011;795;49.296;11.348;2023-03-31T00:43:30;6.83;;;2.77;;
1603;SDS011;795;49.296;11.348;2023-03-31T00:46:06;2.20;;;2.10;;
1603;SDS011;795;49.296;11.348;2023-03-31T00:48:53;7.80;;;2.40;;
1603;SDS011;795;49.296;11.348;2023-03-31T00:51:27;5.67;;;3.33;;
1603;SDS011;795;49.296;11.348;2023-03-31T00:54:02;3.60;;;2.60;;
1603;SDS011;795;49.296;11.348;2023-03-31T00:56:37;5.53;;;1.97;;
1603;SDS011;795;49.296;11.348;2023-03-31T00:59:11;3.50;;;1.93;;
1603;SDS011;795;49.296;11.348;2023-03-31T01:01:39;10.63;;;3.83;;
1603;SDS011;795;49.296;11.348;2023-03-31T01:04:13;9.73;;;3.90;;
1603;SDS011;795;49.296;11.348;2023-03-31T01:06:52;2.43;;;2.23;;
1603;SDS011;795;49.296;11.348;2023-03-31T01:09:34;4.77;;;3.70;;
1603;SDS011;795;49.296;11.348;2023-03-31T01:12:05;5.80;;;3.50;;
1603;SDS011;795;49.296;11.348;2023-03-31T01:14:35;3.73;;;3.43;;
1603;SDS011;795;49.296;11.348;2023-03-31T01:17:03;2.70;;;2.50;;
1603;SDS011;795;49.296;11.348;2023-03-31T01:19:53;7.17;;;3.10;;
1603;SDS011;795;49.296;11.348;2023-03-31T01:23:18;3.30;;;2.63;;
1603;SDS011;795;49.296;11.348;2023-03-31T01:26:41;4.90;;;2.43;;
1603;SDS011;795;49.296;11.348;2023-03-31T01:45:37;3.87;;;2.27;;
1603;SDS011;795;49.296;11.348;2023-03-31T01:51:39;3.70;;;2.60;;
1603;SDS011;795;49.296;11.348;2023-03-31T01:54:53;5.60;;;2.63;;
1603;SDS011;795;49.296;11.348;2023-03-31T01:57:38;3.00;;;2.77;;
1603;SDS011;795;49.296;11.348;2023-03-31T02:00:18;8.37;;;2.70;;
1603;SDS011;795;49.296;11.348;2023-03-31T02:03:07;3.00;;;2.33;;
1603;SDS011;795;49.296;11.348;2023-03-31T02:05:54;6.13;;;2.30;;
1603;SDS011;795;49.296;11.348;2023-03-31T02:08:36;2.83;;;2.60;;
1603;SDS011;795;49.296;11.348;2023-03-31T02:11:11;10.30;;;3.20;;
1603;SDS011;795;49.296;11.348;2023-03-31T02:13:39;5.00;;;3.10;;
1603;SDS011;795;49.296;11.348;2023-03-31T02:16:13;8.33;;;2.87;;
1603;SDS011;795;49.296;11.348;2023-03-31T02:18:50;2.83;;;2.57;;
1603;SDS011;795;49.296;11.348;2023-03-31T02:21:31;3.60;;;2.37;;
1603;SDS011;795;49.296;11.348;2023-03-31T02:24:09;5.60;;;2.93;;
1603;SDS011;795;49.296;11.348;2023-03-31T02:26:41;5.00;;;2.60;;
1603;SDS011;795;49.296;11.348;2023-03-31T02:29:29;5.77;;;3.03;;
1603;SDS011;795;49.296;11.348;2023-03-31T02:32:03;3.90;;;2.10;;
1603;SDS011;795;49.296;11.348;2023-03-31T02:35:00;3.50;;;2.83;;
1603;SDS011;795;49.296;11.348;2023-03-31T02:37:29;4.40;;;2.77;;
1603;SDS011;795;49.296;11.348;2023-03-31T02:39:58;2.87;;;2.50;;
1603;SDS011;795;49.296;11.348;2023-03-31T02:42:38;2.40;;;2.17;;
1603;SDS011;795;49.296;11.348;2023-03-31T02:45:35;6.77;;;2.97;;
1603;SDS011;795;49.296;11.348;2023-03-31T02:57:18;2.90;;;2.70;;
1603;SDS011;795;49.296;11.348;2023-03-31T03:00:07;8.10;;;2.83;;
1603;SDS011;795;49.296;11.348;2023-03-31T03:03:10;6.43;;;2.37;;
1603;SDS011;795;49.296;11.348;2023-03-31T03:09:26;5.50;;;3.30;;
1603;SDS011;795;49.296;11.348;2023-03-31T03:12:24;2.83;;;2.40;;
1603;SDS011;795;49.296;11.348;2023-03-31T03:15:12;4.73;;;2.80;;
1603;SDS011;795;49.296;11.348;2023-03-31T03:17:49;4.80;;;3.03;;
1603;SDS011;795;49.296;11.348;2023-03-31T03:20:19;6.60;;;3.17;;
1603;SDS011;795;49.296;11.348;2023-03-31T03:22:48;13.30;;;2.80;;
1603;SDS011;795;49.296;11.348;2023-03-31T03:25:15;5.70;;;3.17;;
1603;SDS011;795;49.296;11.348;2023-03-31T03:27:45;5.47;;;3.20;;
1603;SDS011;795;49.296;11.348;2023-03-31T03:30:13;10.20;;;3.60;;
1603;SDS011;795;49.296;11.348;2023-03-31T03:32:40;6.20;;;2.77;;
1603;SDS011;795;49.296;11.348;2023-03-31T03:35:07;4.00;;;3.20;;
1603;SDS011;795;49.296;11.348;2023-03-31T03:37:36;7.70;;;3.00;;
1603;SDS011;795;49.296;11.348;2023-03-31T03:40:04;5.80;;;3.17;;
1603;SDS011;795;49.296;11.348;2023-03-31T03:42:33;5.47;;;3.17;;
1603;SDS011;795;49.296;11.348;2023-03-31T03:45:01;5.70;;;2.93;;
1603;SDS011;795;49.296;11.348;2023-03-31T03:47:28;3.90;;;2.87;;
1603;SDS011;795;49.296;11.348;2023-03-31T03:49:55;3.07;;;2.40;;
1603;SDS011;795;49.296;11.348;2023-03-31T03:52:22;7.00;;;2.93;;
1603;SDS011;795;49.296;11.348;2023-03-31T03:54:49;6.37;;;2.70;;
1603;SDS011;795;49.296;11.348;2023-03-31T03:57:16;4.20;;;2.80;;
1603;SDS011;795;49.296;11.348;2023-03-31T03:59:43;3.57;;;3.10;;
1603;SDS011;795;49.296;11.348;2023-03-31T04:02:10;4.40;;;3.00;;
1603;SDS011;795;49.296;11.348;2023-03-31T04:04:37;5.87;;;3.33;;
1603;SDS011;795;49.296;11.348;2023-03-31T04:07:04;7.17;;;3.73;;
1603;SDS011;795;49.296;11.348;2023-03-31T04:09:31;4.50;;;2.90;;
1603;SDS011;795;49.296;11.348;2023-03-31T04:11:58;8.70;;;3.73;;
1603;SDS011;795;49.296;11.348;2023-03-31T04:14:25;5.30;;;3.80;;
1603;SDS011;795;49.296;11.348;2023-03-31T04:16:52;7.40;;;3.50;;
1603;SDS011;795;49.296;11.348;2023-03-31T04:19:21;7.30;;;3.00;;
1603;SDS011;795;49.296;11.348;2023-03-31T04:21:51;5.03;;;2.93;;
1603;SDS011;795;49.296;11.348;2023-03-31T04:24:24;4.50;;;2.87;;
1603;SDS011;795;49.296;11.348;2023-03-31T04:26:58;9.17;;;3.03;;
1603;SDS011;795;49.296;11.348;2023-03-31T04:29:27;4.63;;;2.73;;
1603;SDS011;795;49.296;11.348;2023-03-31T04:31:58;6.60;;;3.70;;
1603;SDS011;795;49.296;11.348;2023-03-31T04:34:26;4.00;;;2.70;;
1603;SDS011;795;49.296;11.348;2023-03-31T04:37:00;4.53;;;2.10;;
1603;SDS011;795;49.296;11.348;2023-03-31T04:39:28;2.60;;;2.40;;
1603;SDS011;795;49.296;11.348;2023-03-31T04:41:57;3.80;;;2.40;;
1603;SDS011;795;49.296;11.348;2023-03-31T04:44:25;6.63;;;2.90;;
1603;SDS011;795;49.296;11.348;2023-03-31T04:46:53;4.93;;;2.60;;
1603;SDS011;795;49.296;11.348;2023-03-31T04:49:21;4.60;;;2.93;;
1603;SDS011;795;49.296;11.348;2023-03-31T04:51:48;3.97;;;2.47;;
1603;SDS011;795;49.296;11.348;2023-03-31T04:54:16;3.83;;;2.67;;
1603;SDS011;795;49.296;11.348;2023-03-31T04:56:43;5.67;;;2.80;;
1603;SDS011;795;49.296;11.348;2023-03-31T04:59:10;6.37;;;3.30;;
1603;SDS011;795;49.296;11.348;2023-03-31T05:01:37;7.83;;;2.83;;
1603;SDS011;795;49.296;11.348;2023-03-31T05:04:04;3.47;;;2.27;;
1603;SDS011;795;49.296;11.348;2023-03-31T05:06:31;5.40;;;3.20;;
1603;SDS011;795;49.296;11.348;2023-03-31T05:08:59;5.50;;;3.07;;
1603;SDS011;795;49.296;11.348;2023-03-31T05:11:26;5.10;;;2.73;;
1603;SDS011;795;49.296;11.348;2023-03-31T05:13:53;2.90;;;2.70;;
1603;SDS011;795;49.296;11.348;2023-03-31T05:16:21;6.43;;;2.77;;
1603;SDS011;795;49.296;11.348;2023-03-31T05:18:47;2.50;;;2.30;;
1603;SDS011;795;49.296;11.348;2023-03-31T05:21:15;7.53;;;3.00;;
1603;SDS011;795;49.296;11.348;2023-03-31T05:23:45;2.30;;;2.03;;
1603;SDS011;795;49.296;11.348;2023-03-31T05:26:14;7.97;;;2.67;;
1603;SDS011;795;49.296;11.348;2023-03-31T05:28:41;3.10;;;2.70;;
1603;SDS011;795;49.296;11.348;2023-03-31T05:31:09;3.23;;;2.83;;
1603;SDS011;795;49.296;11.348;2023-03-31T05:33:38;6.90;;;2.93;;
1603;SDS011;795;49.296;11.348;2023-03-31T05:36:07;5.17;;;2.83;;
1603;SDS011;795;49.296;11.348;2023-03-31T05:38:39;4.13;;;2.30;;
1603;SDS011;795;49.296;11.348;2023-03-31T05:41:07;9.53;;;3.50;;
1603;SDS011;795;49.296;11.348;2023-03-31T05:43:36;4.70;;;3.33;;
1603;SDS011;795;49.296;11.348;2023-03-31T05:46:04;3.20;;;2.90;;
1603;SDS011;795;49.296;11.348;2023-03-31T05:48:32;3.27;;;2.80;;
1603;SDS011;795;49.296;11.348;2023-03-31T05:51:02;4.47;;;2.90;;
1603;SDS011;795;49.296;11.348;2023-03-31T05:53:30;9.17;;;3.50;;
1603;SDS011;795;49.296;11.348;2023-03-31T05:55:58;7.67;;;3.90;;
1603;SDS011;795;49.296;11.348;2023-03-31T05:58:29;3.17;;;2.50;;
1603;SDS011;795;49.296;11.348;2023-03-31T06:01:15;5.13;;;3.50;;
1603;SDS011;795;49.296;11.348;2023-03-31T06:03:48;5.50;;;3.50;;
1603;SDS011;795;49.296;11.348;2023-03-31T06:06:16;6.70;;;4.13;;
1603;SDS011;795;49.296;11.348;2023-03-31T06:08:43;10.90;;;4.57;;
1603;SDS011;795;49.296;11.348;2023-03-31T06:11:13;4.70;;;3.30;;
1603;SDS011;795;49.296;11.348;2023-03-31T06:13:45;5.40;;;3.77;;
1603;SDS011;795;49.296;11.348;2023-03-31T06:16:14;5.27;;;4.37;;
1603;SDS011;795;49.296;11.348;2023-03-31T06:18:43;4.40;;;4.00;;
1603;SDS011;795;49.296;11.348;2023-03-31T06:21:11;7.43;;;4.60;;
1603;SDS011;795;49.296;11.348;2023-03-31T06:23:42;7.93;;;3.87;;
1603;SDS011;795;49.296;11.348;2023-03-31T06:26:11;4.90;;;4.00;;
1603;SDS011;795;49.296;11.348;2023-03-31T06:28:44;5.93;;;3.20;;
1603;SDS011;795;49.296;11.348;2023-03-31T06:31:13;7.00;;;4.47;;
1603;SDS011;795;49.296;11.348;2023-03-31T06:33:44;7.77;;;4.00;;
1603;SDS011;795;49.296;11.348;2023-03-31T06:36:14;9.90;;;5.30;;
1603;SDS011;795;49.296;11.348;2023-03-31T06:38:44;7.90;;;5.20;;
1603;SDS011;795;49.296;11.348;2023-03-31T06:41:13;5.33;;;4.77;;
1603;SDS011;795;49.296;11.348;2023-03-31T06:43:43;5.53;;;4.57;;
1603;SDS011;795;49.296;11.348;2023-03-31T06:46:11;9.00;;;4.60;;
1603;SDS011;795;49.296;11.348;2023-03-31T06:48:39;9.23;;;4.60;;
1603;SDS011;795;49.296;11.348;2023-03-31T06:51:07;10.30;;;6.07;;
1603;SDS011;795;49.296;11.348;2023-03-31T06:53:34;12.33;;;5.20;;
1603;SDS011;795;49.296;11.348;2023-03-31T06:56:02;8.37;;;5.10;;
1603;SDS011;795;49.296;11.348;2023-03-31T06:58:32;8.83;;;4.83;;
1603;SDS011;795;49.296;11.348;2023-03-31T07:01:01;6.90;;;5.07;;
1603;SDS011;795;49.296;11.348;2023-03-31T07:03:32;7.30;;;5.40;;
1603;SDS011;795;49.296;11.348;2023-03-31T07:05:59;8.07;;;5.13;;
1603;SDS011;795;49.296;11.348;2023-03-31T07:08:26;12.97;;;5.37;;
1603;SDS011;795;49.296;11.348;2023-03-31T07:10:55;8.20;;;5.23;;
1603;SDS011;795;49.296;11.348;2023-03-31T07:13:25;6.40;;;5.47;;
1603;SDS011;795;49.296;11.348;2023-03-31T07:15:53;9.60;;;5.50;;
1603;SDS011;795;49.296;11.348;2023-03-31T07:18:21;8.40;;;5.53;;
1603;SDS011;795;49.296;11.348;2023-03-31T07:21:00;10.80;;;5.80;;
1603;SDS011;795;49.296;11.348;2023-03-31T07:23:31;9.83;;;5.20;;
1603;SDS011;795;49.296;11.348;2023-03-31T07:25:57;15.50;;;6.80;;
1603;SDS011;795;49.296;11.348;2023-03-31T07:28:28;10.90;;;7.13;;
1603;SDS011;795;49.296;11.348;2023-03-31T07:30:56;12.30;;;5.97;;
1603;SDS011;795;49.296;11.348;2023-03-31T07:33:24;12.97;;;6.57;;
1603;SDS011;795;49.296;11.348;2023-03-31T07:35:51;7.60;;;6.03;;
1603;SDS011;795;49.296;11.348;2023-03-31T07:38:36;7.37;;;6.70;;
1603;SDS011;795;49.296;11.348;2023-03-31T07:41:04;9.27;;;6.63;;
1603;SDS011;795;49.296;11.348;2023-03-31T07:43:35;10.40;;;6.50;;
1603;SDS011;795;49.296;11.348;2023-03-31T07:46:02;7.47;;;6.40;;
1603;SDS011;795;49.296;11.348;2023-03-31T07:48:31;9.73;;;6.30;;
1603;SDS011;795;49.296;11.348;2023-03-31T07:50:59;11.97;;;6.27;;
1603;SDS011;795;49.296;11.348;2023-03-31T07:53:26;8.73;;;6.07;;
1603;SDS011;795;49.296;11.348;2023-03-31T07:55:53;11.13;;;6.87;;
1603;SDS011;795;49.296;11.348;2023-03-31T07:58:20;10.63;;;6.23;;
1603;SDS011;795;49.296;11.348;2023-03-31T08:03:53;16.60;;;7.43;;
1603;SDS011;795;49.296;11.348;2023-03-31T08:06:21;10.20;;;6.40;;
1603;SDS011;795;49.296;11.348;2023-03-31T08:08:51;13.40;;;7.13;;
1603;SDS011;795;49.296;11.348;2023-03-31T08:11:18;10.37;;;5.70;;
1603;SDS011;795;49.296;11.348;2023-03-31T08:13:46;9.67;;;6.60;;
1603;SDS011;795;49.296;11.348;2023-03-31T08:16:14;8.10;;;6.73;;
1603;SDS011;795;49.296;11.348;2023-03-31T08:18:41;10.70;;;6.90;;
1603;SDS011;795;49.296;11.348;2023-03-31T08:21:08;7.70;;;6.90;;
1603;SDS011;795;49.296;11.348;2023-03-31T08:23:35;14.70;;;8.40;;
1603;SDS011;795;49.296;11.348;2023-03-31T08:26:09;8.20;;;6.73;;
1603;SDS011;795;49.296;11.348;2023-03-31T08:28:43;9.53;;;6.87;;
1603;SDS011;795;49.296;11.348;2023-03-31T08:31:14;11.90;;;7.53;;
1603;SDS011;795;49.296;11.348;2023-03-31T08:33:44;13.07;;;7.67;;
1603;SDS011;795;49.296;11.348;2023-03-31T08:36:12;13.33;;;7.60;;
1603;SDS011;795;49.296;11.348;2023-03-31T08:38:40;10.40;;;8.60;;
1603;SDS011;795;49.296;11.348;2023-03-31T08:44:09;13.00;;;7.77;;
1603;SDS011;795;49.296;11.348;2023-03-31T08:46:47;8.30;;;7.33;;
1603;SDS011;795;49.296;11.348;2023-03-31T08:49:20;10.57;;;6.70;;
1603;SDS011;795;49.296;11.348;2023-03-31T08:51:51;9.00;;;7.20;;
1603;SDS011;795;49.296;11.348;2023-03-31T08:54:28;8.90;;;6.20;;
1603;SDS011;795;49.296;11.348;2023-03-31T08:57:04;11.10;;;6.67;;
1603;SDS011;795;49.296;11.348;2023-03-31T08:59:45;9.20;;;6.70;;
1603;SDS011;795;49.296;11.348;2023-03-31T09:08:49;8.83;;;7.77;;
1603;SDS011;795;49.296;11.348;2023-03-31T09:11:34;7.07;;;5.83;;
1603;SDS011;795;49.296;11.348;2023-03-31T09:19:51;9.20;;;5.97;;
1603;SDS011;795;49.296;11.348;2023-03-31T09:22:27;6.97;;;6.27;;
1603;SDS011;795;49.296;11.348;2023-03-31T09:25:15;7.40;;;5.53;;
1603;SDS011;795;49.296;11.348;2023-03-31T09:27:53;6.17;;;4.63;;
1603;SDS011;795;49.296;11.348;2023-03-31T09:30:26;8.93;;;4.77;;
1603;SDS011;795;49.296;11.348;2023-03-31T09:33:09;6.33;;;4.90;;
1603;SDS011;795;49.296;11.348;2023-03-31T09:35:44;12.80;;;4.77;;
1603;SDS011;795;49.296;11.348;2023-03-31T09:38:12;7.47;;;5.50;;
1603;SDS011;795;49.296;11.348;2023-03-31T09:40:41;5.50;;;4.30;;
1603;SDS011;795;49.296;11.348;2023-03-31T09:43:20;6.50;;;4.70;;
1603;SDS011;795;49.296;11.348;2023-03-31T09:45:54;7.00;;;4.17;;
1603;SDS011;795;49.296;11.348;2023-03-31T09:48:40;5.13;;;4.10;;
1603;SDS011;795;49.296;11.348;2023-03-31T09:51:28;5.70;;;4.20;;
1603;SDS011;795;49.296;11.348;2023-03-31T09:56:50;6.23;;;4.20;;
1603;SDS011;795;49.296;11.348;2023-03-31T09:59:20;4.80;;;3.70;;
1603;SDS011;795;49.296;11.348;2023-03-31T10:02:02;4.00;;;3.20;;
1603;SDS011;795;49.296;11.348;2023-03-31T10:04:54;5.03;;;3.30;;
1603;SDS011;795;49.296;11.348;2023-03-31T10:07:22;3.87;;;3.17;;
1603;SDS011;795;49.296;11.348;2023-03-31T10:09:52;2.80;;;2.60;;
1603;SDS011;795;49.296;11.348;2023-03-31T10:12:30;3.00;;;2.40;;
1603;SDS011;795;49.296;11.348;2023-03-31T10:17:53;2.60;;;2.40;;
1603;SDS011;795;49.296;11.348;2023-03-31T10:20:37;4.97;;;3.33;;
1603;SDS011;795;49.296;11.348;2023-03-31T10:23:14;3.73;;;2.17;;
1603;SDS011;795;49.296;11.348;2023-03-31T10:25:59;3.00;;;2.10;;
1603;SDS011;795;49.296;11.348;2023-03-31T10:28:30;2.10;;;2.00;;
1603;SDS011;795;49.296;11.348;2023-03-31T10:31:01;4.37;;;2.57;;
1603;SDS011;795;49.296;11.348;2023-03-31T10:33:30;2.90;;;2.67;;
1603;SDS011;795;49.296;11.348;2023-03-31T10:36:13;4.57;;;3.07;;
1603;SDS011;795;49.296;11.348;2023-03-31T10:38:52;3.50;;;1.93;;
1603;SDS011;795;49.296;11.348;2023-03-31T10:41:22;4.83;;;2.60;;
1603;SDS011;795;49.296;11.348;2023-03-31T10:43:56;4.00;;;2.20;;
1603;SDS011;795;49.296;11.348;2023-03-31T10:46:46;2.90;;;2.33;;
1603;SDS011;795;49.296;11.348;2023-03-31T10:51:48;2.90;;;2.17;;
1603;SDS011;795;49.296;11.348;2023-03-31T10:54:28;2.17;;;1.90;;
1603;SDS011;795;49.296;11.348;2023-03-31T10:56:55;3.13;;;2.80;;
1603;SDS011;795;49.296;11.348;2023-03-31T11:28:14;3.40;;;1.80;;
1603;SDS011;795;49.296;11.348;2023-03-31T11:31:05;6.57;;;2.00;;
1603;SDS011;795;49.296;11.348;2023-03-31T11:34:05;2.43;;;1.77;;
1603;SDS011;795;49.296;11.348;2023-03-31T11:40:29;4.20;;;1.93;;
1603;SDS011;795;49.296;11.348;2023-03-31T11:43:15;2.20;;;1.90;;
1603;SDS011;795;49.296;11.348;2023-03-31T11:54:39;6.90;;;1.57;;
1603;SDS011;795;49.296;11.348;2023-03-31T12:00:11;3.40;;;1.60;;
1603;SDS011;795;49.296;11.348;2023-03-31T12:02:56;1.73;;;1.57;;
1603;SDS011;795;49.296;11.348;2023-03-31T12:06:03;1.50;;;1.40;;
1603;SDS011;795;49.296;11.348;2023-03-31T12:08:53;7.23;;;1.60;;
1603;SDS011;795;49.296;11.348;2023-03-31T12:12:04;1.93;;;1.23;;
1603;SDS011;795;49.296;11.348;2023-03-31T12:14:54;1.07;;;1.00;;
1603;SDS011;795;49.296;11.348;2023-03-31T12:17:37;2.60;;;1.07;;
1603;SDS011;795;49.296;11.348;2023-03-31T12:20:29;2.03;;;1.13;;
1603;SDS011;795;49.296;11.348;2023-03-31T12:23:28;3.20;;;1.30;;
1603;SDS011;795;49.296;11.348;2023-03-31T12:26:08;2.17;;;1.73;;
1603;SDS011;795;49.296;11.348;2023-03-31T12:29:43;1.60;;;1.47;;
1603;SDS011;795;49.296;11.348;2023-03-31T12:32:30;2.50;;;1.97;;
1603;SDS011;795;49.296;11.348;2023-03-31T12:40:53;2.87;;;1.67;;
1603;SDS011;795;49.296;11.348;2023-03-31T12:49:43;4.27;;;1.87;;
1603;SDS011;795;49.296;11.348;2023-03-31T12:52:23;2.77;;;1.50;;
1603;SDS011;795;49.296;11.348;2023-03-31T12:55:46;1.33;;;1.03;;
1603;SDS011;795;49.296;11.348;2023-03-31T13:01:05;2.67;;;1.47;;
1603;SDS011;795;49.296;11.348;2023-03-31T13:06:49;1.53;;;1.43;;
1603;SDS011;795;49.296;11.348;2023-03-31T13:12:13;4.57;;;1.43;;
1603;SDS011;795;49.296;11.348;2023-03-31T13:14:46;3.73;;;2.13;;
1603;SDS011;795;49.296;11.348;2023-03-31T13:17:21;3.90;;;1.83;;
1603;SDS011;795;49.296;11.348;2023-03-31T13:20:27;3.17;;;2.13;;
1603;SDS011;795;49.296;11.348;2023-03-31T13:23:19;4.40;;;1.77;;
1603;SDS011;795;49.296;11.348;2023-03-31T13:25:54;5.43;;;2.20;;
1603;SDS011;795;49.296;11.348;2023-03-31T13:28:24;4.50;;;1.80;;
1603;SDS011;795;49.296;11.348;2023-03-31T13:34:32;5.20;;;1.90;;
1603;SDS011;795;49.296;11.348;2023-03-31T13:46:56;3.07;;;1.77;;
1603;SDS011;795;49.296;11.348;2023-03-31T14:00:46;4.77;;;1.90;;
1603;SDS011;795;49.296;11.348;2023-03-31T14:04:34;6.37;;;3.03;;
1603;SDS011;795;49.296;11.348;2023-03-31T14:07:26;2.13;;;1.80;;
1603;SDS011;795;49.296;11.348;2023-03-31T14:10:03;7.10;;;1.73;;
1603;SDS011;795;49.296;11.348;2023-03-31T14:12:33;3.13;;;1.53;;
1603;SDS011;795;49.296;11.348;2023-03-31T14:15:03;2.90;;;1.20;;
1603;SDS011;795;49.296;11.348;2023-03-31T14:17:38;2.63;;;1.80;;
1603;SDS011;795;49.296;11.348;2023-03-31T14:20:09;2.13;;;1.53;;
1603;SDS011;795;49.296;11.348;2023-03-31T14:23:08;1.50;;;1.40;;
1603;SDS011;795;49.296;11.348;2023-03-31T14:26:12;3.03;;;1.50;;
1603;SDS011;795;49.296;11.348;2023-03-31T14:32:28;3.43;;;1.20;;
1603;SDS011;795;49.296;11.348;2023-03-31T14:35:21;1.40;;;1.30;;
1603;SDS011;795;49.296;11.348;2023-03-31T14:38:18;1.90;;;1.30;;
1603;SDS011;795;49.296;11.348;2023-03-31T14:40:49;3.73;;;1.40;;
1603;SDS011;795;49.296;11.348;2023-03-31T14:43:22;2.10;;;1.47;;
1603;SDS011;795;49.296;11.348;2023-03-31T14:45:59;1.90;;;1.20;;
1603;SDS011;795;49.296;11.348;2023-03-31T14:48:31;1.47;;;1.37;;
1603;SDS011;795;49.296;11.348;2023-03-31T14:51:14;2.63;;;1.43;;
1603;SDS011;795;49.296;11.348;2023-03-31T14:53:59;2.60;;;1.33;;
1603;SDS011;795;49.296;11.348;2023-03-31T14:56:29;1.30;;;1.20;;
1603;SDS011;795;49.296;11.348;2023-03-31T14:59:06;3.37;;;1.60;;
1603;SDS011;795;49.296;11.348;2023-03-31T15:01:34;3.57;;;1.30;;
1603;SDS011;795;49.296;11.348;2023-03-31T15:04:04;3.50;;;1.43;;
1603;SDS011;795;49.296;11.348;2023-03-31T15:06:43;5.60;;;1.57;;
1603;SDS011;795;49.296;11.348;2023-03-31T15:09:20;1.00;;;1.00;;
1603;SDS011;795;49.296;11.348;2023-03-31T15:12:04;2.40;;;1.40;;
1603;SDS011;795;49.296;11.348;2023-03-31T15:14:47;3.30;;;1.50;;
1603;SDS011;795;49.296;11.348;2023-03-31T15:17:23;4.37;;;1.67;;
1603;SDS011;795;49.296;11.348;2023-03-31T15:19:58;1.90;;;1.50;;
1603;SDS011;795;49.296;11.348;2023-03-31T15:22:45;1.47;;;1.37;;
1603;SDS011;795;49.296;11.348;2023-03-31T15:25:12;5.23;;;1.33;;
1603;SDS011;795;49.296;11.348;2023-03-31T15:27:47;4.43;;;1.93;;
1603;SDS011;795;49.296;11.348;2023-03-31T15:30:31;1.80;;;1.47;;
1603;SDS011;795;49.296;11.348;2023-03-31T15:33:04;1.27;;;1.00;;
1603;SDS011;795;49.296;11.348;2023-03-31T15:35:44;2.30;;;1.40;;
1603;SDS011;795;49.296;11.348;2023-03-31T15:38:13;1.60;;;1.50;;
1603;SDS011;795;49.296;11.348;2023-03-31T15:40:51;2.53;;;1.90;;
1603;SDS011;795;49.296;11.348;2023-03-31T15:43:27;1.70;;;1.60;;
1603;SDS011;795;49.296;11.348;2023-03-31T15:45:58;3.27;;;2.13;;
1603;SDS011;795;49.296;11.348;2023-03-31T15:51:13;4.60;;;1.50;;
1603;SDS011;795;49.296;11.348;2023-03-31T15:53:58;3.83;;;2.13;;
1603;SDS011;795;49.296;11.348;2023-03-31T15:56:31;3.93;;;1.53;;
1603;SDS011;795;49.296;11.348;2023-03-31T15:59:22;4.73;;;2.90;;
1603;SDS011;795;49.296;11.348;2023-03-31T16:02:12;8.17;;;4.00;;
1603;SDS011;795;49.296;11.348;2023-03-31T16:04:53;5.00;;;3.90;;
1603;SDS011;795;49.296;11.348;2023-03-31T16:07:28;6.57;;;2.67;;
1603;SDS011;795;49.296;11.348;2023-03-31T16:12:33;3.90;;;2.90;;
1603;SDS011;795;49.296;11.348;2023-03-31T16:15:17;20.77;;;10.87;;
1603;SDS011;795;49.296;11.348;2023-03-31T16:18:11;4.23;;;3.07;;
1603;SDS011;795;49.296;11.348;2023-03-31T16:20:56;2.70;;;1.80;;
1603;SDS011;795;49.296;11.348;2023-03-31T16:23:31;4.10;;;2.27;;
1603;SDS011;795;49.296;11.348;2023-03-31T16:26:06;7.07;;;3.63;;
1603;SDS011;795;49.296;11.348;2023-03-31T16:28:34;4.47;;;3.20;;
1603;SDS011;795;49.296;11.348;2023-03-31T16:31:03;5.17;;;2.40;;
1603;SDS011;795;49.296;11.348;2023-03-31T16:34:03;2.30;;;1.50;;
1603;SDS011;795;49.296;11.348;2023-03-31T16:36:36;3.83;;;2.10;;
1603;SDS011;795;49.296;11.348;2023-03-31T16:39:04;5.60;;;2.80;;
1603;SDS011;795;49.296;11.348;2023-03-31T16:41:32;6.60;;;3.60;;
1603;SDS011;795;49.296;11.348;2023-03-31T16:44:02;6.23;;;3.87;;
1603;SDS011;795;49.296;11.348;2023-03-31T16:46:31;2.67;;;2.23;;
1603;SDS011;795;49.296;11.348;2023-03-31T16:48:58;4.53;;;1.80;;
1603;SDS011;795;49.296;11.348;2023-03-31T16:51:25;1.40;;;1.30;;
1603;SDS011;795;49.296;11.348;2023-03-31T16:53:52;6.40;;;2.53;;
1603;SDS011;795;49.296;11.348;2023-03-31T16:56:21;5.87;;;3.90;;
1603;SDS011;795;49.296;11.348;2023-03-31T16:58:48;3.77;;;2.57;;
1603;SDS011;795;49.296;11.348;2023-03-31T17:01:15;9.53;;;3.87;;
1603;SDS011;795;49.296;11.348;2023-03-31T17:03:42;5.70;;;3.70;;
1603;SDS011;795;49.296;11.348;2023-03-31T17:06:11;7.97;;;4.23;;
1603;SDS011;795;49.296;11.348;2023-03-31T17:08:39;5.87;;;3.37;;
1603;SDS011;795;49.296;11.348;2023-03-31T17:11:10;11.53;;;8.73;;
1603;SDS011;795;49.296;11.348;2023-03-31T17:13:39;6.00;;;3.97;;
1603;SDS011;795;49.296;11.348;2023-03-31T17:16:09;6.07;;;4.00;;
1603;SDS011;795;49.296;11.348;2023-03-31T17:18:40;7.73;;;3.63;;
1603;SDS011;795;49.296;11.348;2023-03-31T17:21:08;6.23;;;2.47;;
1603;SDS011;795;49.296;11.348;2023-03-31T17:23:39;2.80;;;2.23;;
1603;SDS011;795;49.296;11.348;2023-03-31T17:26:08;5.60;;;3.90;;
1603;SDS011;795;49.296;11.348;2023-03-31T17:28:38;4.10;;;3.80;;
1603;SDS011;795;49.296;11.348;2023-03-31T17:31:13;2.33;;;1.20;;
1603;SDS011;795;49.296;11.348;2023-03-31T17:33:44;3.00;;;1.23;;
1603;SDS011;795;49.296;11.348;2023-03-31T17:36:12;1.27;;;1.17;;
1603;SDS011;795;49.296;11.348;2023-03-31T17:38:40;3.10;;;1.33;;
1603;SDS011;795;49.296;11.348;2023-03-31T17:41:09;1.90;;;1.20;;
1603;SDS011;795;49.296;11.348;2023-03-31T17:43:38;3.07;;;1.57;;
1603;SDS011;795;49.296;11.348;2023-03-31T17:46:09;3.73;;;1.57;;
1603;SDS011;795;49.296;11.348;2023-03-31T17:48:38;4.20;;;1.67;;
1603;SDS011;795;49.296;11.348;2023-03-31T17:51:08;21.63;;;8.13;;
1603;SDS011;795;49.296;11.348;2023-03-31T17:53:44;15.10;;;7.07;;
1603;SDS011;795;49.296;11.348;2023-03-31T17:56:13;3.20;;;2.90;;
1603;SDS011;795;49.296;11.348;2023-03-31T17:58:42;4.60;;;3.50;;
1603;SDS011;795;49.296;11.348;2023-03-31T18:01:11;8.13;;;3.57;;
1603;SDS011;795;49.296;11.348;2023-03-31T18:03:39;2.63;;;2.40;;
1603;SDS011;795;49.296;11.348;2023-03-31T18:06:08;4.83;;;2.27;;
1603;SDS011;795;49.296;11.348;2023-03-31T18:08:38;6.80;;;3.30;;
1603;SDS011;795;49.296;11.348;2023-03-31T18:11:07;5.73;;;3.00;;
1603;SDS011;795;49.296;11.348;2023-03-31T18:13:35;1.63;;;1.53;;
1603;SDS011;795;49.296;11.348;2023-03-31T18:16:03;4.10;;;2.90;;
1603;SDS011;795;49.296;11.348;2023-03-31T18:18:38;2.47;;;1.93;;
1603;SDS011;795;49.296;11.348;2023-03-31T18:21:06;3.17;;;2.10;;
1603;SDS011;795;49.296;11.348;2023-03-31T18:23:38;6.43;;;4.00;;
1603;SDS011;795;49.296;11.348;2023-03-31T18:26:07;6.40;;;2.80;;
1603;SDS011;795;49.296;11.348;2023-03-31T18:28:37;4.43;;;2.60;;
1603;SDS011;795;49.296;11.348;2023-03-31T18:31:06;5.93;;;3.50;;
1603;SDS011;795;49.296;11.348;2023-03-31T18:33:35;2.93;;;2.27;;
1603;SDS011;795;49.296;11.348;2023-03-31T18:36:02;5.13;;;3.10;;
1603;SDS011;795;49.296;11.348;2023-03-31T18:38:32;3.57;;;1.40;;